createdAt,value
2018-05-21T00:00:00.172Z,95.86
2018-05-21T00:02:28.438Z,95.65
2018-05-21T00:04:56.670Z,95.70
2018-05-21T00:07:25.031Z,95.40
2018-05-21T00:09:54.044Z,95.30
2018-05-21T00:12:22.281Z,95.21
2018-05-21T00:14:50.512Z,95.46
2018-05-21T00:17:18.803Z,95.58
2018-05-21T00:19:47.832Z,95.84
2018-05-21T00:22:16.075Z,95.96
2018-05-21T00:24:44.323Z,95.90
2018-05-21T00:27:12.674Z,95.88
2018-05-21T00:29:42.505Z,95.76
2018-05-21T00:32:11.502Z,95.55
2018-05-21T00:34:40.523Z,95.67
2018-05-21T00:37:09.623Z,95.54
2018-05-21T00:39:38.727Z,95.46
2018-05-21T00:42:06.887Z,95.44
2018-05-21T00:44:35.260Z,93.97
2018-05-21T00:47:03.502Z,93.05
2018-05-21T00:49:32.580Z,93.25
2018-05-21T00:52:01.049Z,93.61
2018-05-21T00:54:29.395Z,93.74
2018-05-21T00:56:58.398Z,93.77
2018-05-21T00:59:27.431Z,93.79
2018-05-21T01:01:56.446Z,93.84
2018-05-21T01:04:24.704Z,93.23
2018-05-21T01:06:52.948Z,92.92
2018-05-21T01:09:21.971Z,92.91
2018-05-21T01:11:50.235Z,92.74
2018-05-21T01:14:19.252Z,92.83
2018-05-21T01:16:47.592Z,92.63
2018-05-21T01:19:16.570Z,92.16
2018-05-21T01:21:44.907Z,91.55
2018-05-21T01:24:13.264Z,91.34
2018-05-21T01:26:42.267Z,91.59
2018-05-21T01:29:11.385Z,91.63
2018-05-21T01:31:40.348Z,91.49
2018-05-21T01:34:09.414Z,91.28
2018-05-21T01:36:37.684Z,91.49
2018-05-21T01:39:05.980Z,91.19
2018-05-21T01:41:34.978Z,91.48
2018-05-21T01:44:04.039Z,91.31
2018-05-21T01:46:32.270Z,91.47
2018-05-21T01:49:01.296Z,91.63
2018-05-21T01:51:31.123Z,91.28
2018-05-21T01:53:59.397Z,91.55
2018-05-21T01:56:28.408Z,91.80
2018-05-21T01:58:58.197Z,91.94
2018-05-21T02:01:26.519Z,92.20
2018-05-21T02:03:55.528Z,91.83
2018-05-21T02:06:24.567Z,91.60
2018-05-21T02:08:52.818Z,91.82
2018-05-21T02:11:21.841Z,92.22
2018-05-21T02:13:50.843Z,92.10
2018-05-21T02:16:19.855Z,92.00
2018-05-21T02:18:48.955Z,92.28
2018-05-21T02:21:18.061Z,92.44
2018-05-21T02:23:47.042Z,92.59
2018-05-21T02:26:15.300Z,92.94
2018-05-21T02:28:43.669Z,93.13
2018-05-21T02:31:11.911Z,93.43
2018-05-21T02:33:40.151Z,93.77
2018-05-21T02:36:08.515Z,93.89
2018-05-21T02:38:37.612Z,94.01
2018-05-21T02:41:06.641Z,93.77
2018-05-21T02:43:34.948Z,93.57
2018-05-21T02:46:03.191Z,93.49
2018-05-21T02:48:31.439Z,92.61
2018-05-21T02:50:59.686Z,92.07
2018-05-21T02:53:28.783Z,91.12
2018-05-21T02:55:57.999Z,90.33
2018-05-21T02:58:27.003Z,89.31
2018-05-21T03:00:56.020Z,89.01
2018-05-21T03:03:25.029Z,89.39
2018-05-21T03:05:54.008Z,89.47
2018-05-21T03:08:22.283Z,89.81
2018-05-21T03:10:50.538Z,89.94
2018-05-21T03:13:18.770Z,90.73
2018-05-21T03:15:47.038Z,90.98
2018-05-21T03:18:15.375Z,92.01
2018-05-21T03:20:44.390Z,92.45
2018-05-21T03:23:12.664Z,92.76
2018-05-21T03:25:41.784Z,92.89
2018-05-21T03:28:10.882Z,93.21
2018-05-21T03:30:39.909Z,92.95
2018-05-21T03:33:08.148Z,93.09
2018-05-21T03:35:36.402Z,92.84
2018-05-21T03:38:04.646Z,92.83
2018-05-21T03:40:32.886Z,92.80
2018-05-21T03:43:01.113Z,92.69
2018-05-21T03:45:29.402Z,92.27
2018-05-21T03:47:57.676Z,92.39
2018-05-21T03:50:25.931Z,91.93
2018-05-21T03:52:54.190Z,92.13
2018-05-21T03:55:23.295Z,91.63
2018-05-21T03:57:52.347Z,91.61
2018-05-21T04:00:38.414Z,91.33
2018-05-21T04:03:25.342Z,91.60
2018-05-21T04:05:54.358Z,91.67
2018-05-21T04:08:23.383Z,91.84
2018-05-21T04:10:51.624Z,91.69
2018-05-21T04:13:21.379Z,91.29
2018-05-21T04:15:50.383Z,91.02
2018-05-21T04:18:19.404Z,90.53
2018-05-21T04:20:47.643Z,89.88
2018-05-21T04:23:15.905Z,89.96
2018-05-21T04:25:44.104Z,89.98
2018-05-21T04:28:12.394Z,89.88
2018-05-21T04:30:40.626Z,89.84
2018-05-21T04:33:10.447Z,89.66
2018-05-21T04:35:39.451Z,89.23
2018-05-21T04:38:08.472Z,89.11
2018-05-21T04:40:37.470Z,88.99
2018-05-21T04:43:06.502Z,89.10
2018-05-21T04:45:34.751Z,88.34
2018-05-21T04:48:03.067Z,88.00
2018-05-21T04:50:31.315Z,87.63
2018-05-21T04:53:00.763Z,86.80
2018-05-21T04:55:29.719Z,83.52
2018-05-21T04:57:58.013Z,73.80
2018-05-21T05:00:26.265Z,68.05
2018-05-21T05:02:55.370Z,64.43
2018-05-21T05:05:24.370Z,63.81
2018-05-21T05:07:53.404Z,62.53
2018-05-21T05:10:21.650Z,62.89
2018-05-21T05:12:51.286Z,61.58
2018-05-21T05:15:20.395Z,62.42
2018-05-21T05:17:49.418Z,62.05
2018-05-21T05:20:17.698Z,60.70
2018-05-21T05:22:46.703Z,61.07
2018-05-21T05:25:15.791Z,60.19
2018-05-21T05:27:44.769Z,60.57
2018-05-21T05:30:13.818Z,61.08
2018-05-21T05:32:42.821Z,60.09
2018-05-21T05:35:11.923Z,58.10
2018-05-21T05:37:41.045Z,56.94
2018-05-21T05:40:10.144Z,57.70
2018-05-21T05:42:39.151Z,53.90
2018-05-21T05:45:08.171Z,54.36
2018-05-21T05:47:36.429Z,55.27
2018-05-21T05:50:04.675Z,54.79
2018-05-21T05:52:32.901Z,55.24
2018-05-21T05:55:01.216Z,54.93
2018-05-21T05:57:30.973Z,55.23
2018-05-21T05:59:59.181Z,55.38
2018-05-21T06:02:28.927Z,53.20
2018-05-21T06:04:57.214Z,53.39
2018-05-21T06:07:25.456Z,53.97
2018-05-21T06:09:53.723Z,54.87
2018-05-21T06:12:22.731Z,52.04
2018-05-21T06:14:50.982Z,52.57
2018-05-21T06:17:19.300Z,53.30
2018-05-21T06:19:48.343Z,54.22
2018-05-21T06:22:17.411Z,53.09
2018-05-21T06:24:46.440Z,52.10
2018-05-21T06:27:14.715Z,54.03
2018-05-21T06:29:43.762Z,52.20
2018-05-21T06:32:11.994Z,54.37
2018-05-21T06:34:40.244Z,53.08
2018-05-21T06:37:08.512Z,52.15
2018-05-21T06:39:36.760Z,52.44
2018-05-21T06:42:04.955Z,51.07
2018-05-21T06:44:34.358Z,53.07
2018-05-21T06:47:02.674Z,53.26
2018-05-21T06:49:31.779Z,52.44
2018-05-21T06:52:00.925Z,52.59
2018-05-21T06:54:29.176Z,52.90
2018-05-21T06:56:58.940Z,54.33
2018-05-21T06:59:27.198Z,54.42
2018-05-21T07:01:55.442Z,53.66
2018-05-21T07:04:23.671Z,53.85
2018-05-21T07:06:51.995Z,52.94
2018-05-21T07:09:20.251Z,51.58
2018-05-21T07:11:48.527Z,50.77
2018-05-21T07:14:17.531Z,51.13
2018-05-21T07:16:46.550Z,51.37
2018-05-21T07:19:15.581Z,51.04
2018-05-21T07:21:43.822Z,49.68
2018-05-21T07:24:12.102Z,50.27
2018-05-21T07:26:40.423Z,50.55
2018-05-21T07:29:09.435Z,51.17
2018-05-21T07:31:38.455Z,52.52
2018-05-21T07:34:06.734Z,50.52
2018-05-21T07:36:35.749Z,50.52
2018-05-21T07:39:03.994Z,51.14
2018-05-21T07:41:33.031Z,48.84
2018-05-21T07:44:02.049Z,48.51
2018-05-21T07:46:31.757Z,49.68
2018-05-21T07:49:01.101Z,48.43
2018-05-21T07:51:29.482Z,48.18
2018-05-21T07:53:57.657Z,49.65
2018-05-21T07:56:27.420Z,48.80
2018-05-21T07:58:55.621Z,49.69
2018-05-21T08:01:23.942Z,49.60
2018-05-21T08:03:52.180Z,49.57
2018-05-21T08:06:20.429Z,47.48
2018-05-21T08:08:49.457Z,49.34
2018-05-21T08:11:17.864Z,47.15
2018-05-21T08:13:46.095Z,49.99
2018-05-21T08:16:14.316Z,48.42
2018-05-21T08:18:42.540Z,47.97
2018-05-21T08:21:10.768Z,47.01
2018-05-21T08:23:39.051Z,48.66
2018-05-21T08:26:07.306Z,48.00
2018-05-21T08:28:35.550Z,47.08
2018-05-21T08:31:04.566Z,47.78
2018-05-21T08:33:32.834Z,47.76
2018-05-21T08:36:01.879Z,46.60
2018-05-21T08:38:30.126Z,48.42
2018-05-21T08:40:59.147Z,48.42
2018-05-21T08:43:28.115Z,47.65
2018-05-21T08:45:57.112Z,47.45
2018-05-21T08:48:26.225Z,46.68
2018-05-21T08:50:55.190Z,46.49
2018-05-21T08:53:23.439Z,46.76
2018-05-21T08:55:51.674Z,46.13
2018-05-21T08:58:19.943Z,47.30
2018-05-21T09:00:48.957Z,47.78
2018-05-21T09:03:17.214Z,47.71
2018-05-21T09:05:45.459Z,47.14
2018-05-21T09:08:13.711Z,46.76
2018-05-21T09:10:42.714Z,46.25
2018-05-21T09:13:11.734Z,46.54
2018-05-21T09:15:39.970Z,47.92
2018-05-21T09:18:08.990Z,45.77
2018-05-21T09:20:37.223Z,45.85
2018-05-21T09:23:05.484Z,46.80
2018-05-21T09:25:33.718Z,47.04
2018-05-21T09:28:01.999Z,47.66
2018-05-21T09:30:30.228Z,46.53
2018-05-21T09:32:58.484Z,44.73
2018-05-21T09:35:26.753Z,44.79
2018-05-21T09:37:55.821Z,44.47
2018-05-21T09:40:24.058Z,43.60
2018-05-21T09:42:52.319Z,45.56
2018-05-21T09:45:21.327Z,45.81
2018-05-21T09:47:50.310Z,45.22
2018-05-21T09:50:18.602Z,45.99
2018-05-21T09:52:46.855Z,44.16
2018-05-21T09:55:15.101Z,43.43
2018-05-21T09:57:44.139Z,42.86
2018-05-21T10:00:22.271Z,45.58
2018-05-21T10:02:50.500Z,43.98
2018-05-21T10:05:18.782Z,43.93
2018-05-21T10:07:47.028Z,43.50
2018-05-21T10:10:15.276Z,43.30
2018-05-21T10:12:44.242Z,43.54
2018-05-21T10:15:13.293Z,44.58
2018-05-21T10:17:42.373Z,43.30
2018-05-21T10:20:10.635Z,42.86
2018-05-21T10:22:38.875Z,42.68
2018-05-21T10:25:07.888Z,43.00
2018-05-21T10:27:36.886Z,41.18
2018-05-21T10:30:05.920Z,41.53
2018-05-21T10:32:34.160Z,43.59
2018-05-21T10:35:02.440Z,43.28
2018-05-21T10:37:30.685Z,43.76
2018-05-21T10:39:58.938Z,42.59
2018-05-21T10:42:27.183Z,45.24
2018-05-21T10:44:55.458Z,43.99
2018-05-21T10:47:23.696Z,43.53
2018-05-21T10:49:53.310Z,42.90
2018-05-21T10:52:21.571Z,43.03
2018-05-21T10:54:49.822Z,41.78
2018-05-21T10:57:18.065Z,41.19
2018-05-21T10:59:46.419Z,41.37
2018-05-21T11:02:14.659Z,41.92
2018-05-21T11:04:42.965Z,42.28
2018-05-21T11:07:11.119Z,42.67
2018-05-21T11:09:39.404Z,41.21
2018-05-21T11:12:07.736Z,40.94
2018-05-21T11:14:36.672Z,42.07
2018-05-21T11:17:04.912Z,41.31
2018-05-21T11:19:33.195Z,41.92
2018-05-21T11:22:01.485Z,44.60
2018-05-21T11:24:29.740Z,41.44
2018-05-21T11:26:57.984Z,39.85
2018-05-21T11:29:26.978Z,41.90
2018-05-21T11:31:55.248Z,43.62
2018-05-21T11:34:23.527Z,42.98
2018-05-21T11:36:52.582Z,41.34
2018-05-21T11:39:20.819Z,40.49
2018-05-21T11:41:49.849Z,43.04
2018-05-21T11:44:18.057Z,41.73
2018-05-21T11:46:46.351Z,40.24
2018-05-21T11:49:15.337Z,39.41
2018-05-21T11:51:43.570Z,40.17
2018-05-21T11:54:11.844Z,40.64
2018-05-21T11:56:40.863Z,40.18
2018-05-21T11:59:09.101Z,38.10
2018-05-21T12:01:37.350Z,38.92
2018-05-21T12:04:05.599Z,40.50
2018-05-21T12:06:33.851Z,40.74
2018-05-21T12:09:02.098Z,42.28
2018-05-21T12:11:30.383Z,40.48
2018-05-21T12:13:58.627Z,40.20
2018-05-21T12:16:26.886Z,41.92
2018-05-21T12:18:55.125Z,43.52
2018-05-21T12:21:23.389Z,43.30
2018-05-21T12:23:51.639Z,43.75
2018-05-21T12:26:19.903Z,41.55
2018-05-21T12:28:48.958Z,41.81
2018-05-21T12:31:17.176Z,38.89
2018-05-21T12:33:45.415Z,37.69
2018-05-21T12:36:14.453Z,39.87
2018-05-21T12:38:42.687Z,39.13
2018-05-21T12:41:11.738Z,38.70
2018-05-21T12:43:39.972Z,38.57
2018-05-21T12:46:09.007Z,38.25
2018-05-21T12:48:37.239Z,38.28
2018-05-21T12:51:05.541Z,38.05
2018-05-21T12:53:33.747Z,38.78
2018-05-21T12:56:02.046Z,37.70
2018-05-21T12:58:31.073Z,37.39
2018-05-21T13:00:59.311Z,36.97
2018-05-21T13:03:27.579Z,36.85
2018-05-21T13:05:55.810Z,36.71
2018-05-21T13:08:24.836Z,38.39
2018-05-21T13:10:53.079Z,38.46
2018-05-21T13:13:21.339Z,38.21
2018-05-21T13:15:49.571Z,38.83
2018-05-21T13:18:17.871Z,38.18
2018-05-21T13:20:47.619Z,37.84
2018-05-21T13:23:15.840Z,37.40
2018-05-21T13:25:44.923Z,37.67
2018-05-21T13:28:13.184Z,37.07
2018-05-21T13:30:42.204Z,34.73
2018-05-21T13:33:10.466Z,36.77
2018-05-21T13:35:38.702Z,35.92
2018-05-21T13:38:06.963Z,36.35
2018-05-21T13:40:35.978Z,36.50
2018-05-21T13:43:04.301Z,35.49
2018-05-21T13:45:33.275Z,36.06
2018-05-21T13:48:01.548Z,36.48
2018-05-21T13:50:30.525Z,36.14
2018-05-21T13:52:59.552Z,36.44
2018-05-21T13:55:27.835Z,36.49
2018-05-21T13:57:57.146Z,37.61
2018-05-21T14:00:25.382Z,38.49
2018-05-21T14:02:53.731Z,37.25
2018-05-21T14:05:23.094Z,38.36
2018-05-21T14:07:51.357Z,38.69
2018-05-21T14:10:20.360Z,37.85
2018-05-21T14:12:48.614Z,39.01
2018-05-21T14:15:16.855Z,39.20
2018-05-21T14:17:45.115Z,38.72
2018-05-21T14:20:14.094Z,38.57
2018-05-21T14:22:43.893Z,39.58
2018-05-21T14:25:12.241Z,39.90
2018-05-21T14:27:40.347Z,39.88
2018-05-21T14:30:08.627Z,39.00
2018-05-21T14:32:36.887Z,38.99
2018-05-21T14:35:05.097Z,39.95
2018-05-21T14:37:33.388Z,41.44
2018-05-21T14:40:02.782Z,40.61
2018-05-21T14:42:31.037Z,40.63
2018-05-21T14:44:59.286Z,39.01
2018-05-21T14:47:27.522Z,38.97
2018-05-21T14:49:55.789Z,38.93
2018-05-21T14:52:24.031Z,37.30
2018-05-21T14:54:52.337Z,37.79
2018-05-21T14:57:20.513Z,36.52
2018-05-21T14:59:49.539Z,38.43
2018-05-21T15:02:18.548Z,38.81
2018-05-21T15:04:46.841Z,36.04
2018-05-21T15:07:15.068Z,36.82
2018-05-21T15:09:43.331Z,39.23
2018-05-21T15:12:11.571Z,40.55
2018-05-21T15:14:39.831Z,42.24
2018-05-21T15:17:08.080Z,42.12
2018-05-21T15:19:36.329Z,40.79
2018-05-21T15:22:04.606Z,41.59
2018-05-21T15:24:32.859Z,42.16
2018-05-21T15:27:01.102Z,42.17
2018-05-21T15:29:29.364Z,43.32
2018-05-21T15:31:57.598Z,44.50
2018-05-21T15:34:26.615Z,45.38
2018-05-21T15:36:54.872Z,45.96
2018-05-21T15:39:23.123Z,45.59
2018-05-21T15:41:52.136Z,46.89
2018-05-21T15:44:20.414Z,47.12
2018-05-21T15:46:48.633Z,47.56
2018-05-21T15:49:18.075Z,47.43
2018-05-21T15:51:46.308Z,47.48
2018-05-21T15:54:14.542Z,47.40
2018-05-21T15:56:42.772Z,47.87
2018-05-21T15:59:11.031Z,48.82
2018-05-21T16:01:40.067Z,49.65
2018-05-21T16:04:08.275Z,51.09
2018-05-21T16:06:36.563Z,48.27
2018-05-21T16:09:04.911Z,48.63
2018-05-21T16:11:34.485Z,49.14
2018-05-21T16:14:02.694Z,48.69
2018-05-21T16:16:31.087Z,50.37
2018-05-21T16:18:59.354Z,49.01
2018-05-21T16:21:27.636Z,49.57
2018-05-21T16:23:55.948Z,50.55
2018-05-21T16:26:24.242Z,49.96
2018-05-21T16:28:53.295Z,49.32
2018-05-21T16:31:21.570Z,50.00
2018-05-21T16:33:50.571Z,49.71
2018-05-21T16:36:19.596Z,50.07
2018-05-21T16:38:47.919Z,49.85
2018-05-21T16:41:16.153Z,49.87
2018-05-21T16:43:44.415Z,50.38
2018-05-21T16:46:12.655Z,50.73
2018-05-21T16:48:40.940Z,51.00
2018-05-21T16:51:09.279Z,50.04
2018-05-21T16:53:37.513Z,48.59
2018-05-21T16:56:05.830Z,47.83
2018-05-21T16:58:34.077Z,46.08
2018-05-21T17:01:03.144Z,46.96
2018-05-21T17:03:31.423Z,46.77
2018-05-21T17:06:00.475Z,47.20
2018-05-21T17:08:29.493Z,45.85
2018-05-21T17:10:58.522Z,47.06
2018-05-21T17:13:26.759Z,45.98
2018-05-21T17:15:55.062Z,45.62
2018-05-21T17:18:23.307Z,45.84
2018-05-21T17:20:51.571Z,44.66
2018-05-21T17:23:19.844Z,45.35
2018-05-21T17:25:48.805Z,47.00
2018-05-21T17:28:17.885Z,49.49
2018-05-21T17:30:46.138Z,49.64
2018-05-21T17:33:15.126Z,51.45
2018-05-21T17:35:43.478Z,51.26
2018-05-21T17:38:11.681Z,50.96
2018-05-21T17:40:39.931Z,50.77
2018-05-21T17:43:08.186Z,53.22
2018-05-21T17:45:36.443Z,53.55
2018-05-21T17:48:04.723Z,53.94
2018-05-21T17:50:32.967Z,55.07
2018-05-21T17:53:02.750Z,55.59
2018-05-21T17:55:31.025Z,55.78
2018-05-21T17:57:59.297Z,55.60
2018-05-21T18:00:27.533Z,55.41
2018-05-21T18:02:55.815Z,56.48
2018-05-21T18:05:24.056Z,56.04
2018-05-21T18:07:52.382Z,55.87
2018-05-21T18:10:20.631Z,55.26
2018-05-21T18:12:48.935Z,55.65
2018-05-21T18:15:17.175Z,56.07
2018-05-21T18:17:45.544Z,55.72
2018-05-21T18:20:13.818Z,55.73
2018-05-21T18:22:42.107Z,54.91
2018-05-21T18:25:10.358Z,55.23
2018-05-21T18:27:39.350Z,55.94
2018-05-21T18:30:07.724Z,55.95
2018-05-21T18:32:35.988Z,56.37
2018-05-21T18:35:04.255Z,56.88
2018-05-21T18:37:32.544Z,57.61
2018-05-21T18:40:00.793Z,57.64
2018-05-21T18:42:29.916Z,56.97
2018-05-21T18:44:58.111Z,57.58
2018-05-21T18:47:27.139Z,58.09
2018-05-21T18:49:55.435Z,58.13
2018-05-21T18:52:23.707Z,58.28
2018-05-21T18:54:51.980Z,58.65
2018-05-21T18:57:20.990Z,59.79
2018-05-21T18:59:49.268Z,64.40
2018-05-21T19:02:18.295Z,61.18
2018-05-21T19:04:46.560Z,57.50
2018-05-21T19:07:14.834Z,55.94
2018-05-21T19:09:43.098Z,55.34
2018-05-21T19:12:11.299Z,55.49
2018-05-21T19:14:40.350Z,55.26
2018-05-21T19:17:08.590Z,55.65
2018-05-21T19:19:36.883Z,54.82
2018-05-21T19:22:05.151Z,54.34
2018-05-21T19:24:33.428Z,53.89
2018-05-21T19:27:01.678Z,53.22
2018-05-21T19:29:30.731Z,53.16
2018-05-21T19:31:59.738Z,52.53
2018-05-21T19:34:27.990Z,52.47
2018-05-21T19:36:56.998Z,52.45
2018-05-21T19:39:25.304Z,52.02
2018-05-21T19:41:54.300Z,52.63
2018-05-21T19:44:22.559Z,53.08
2018-05-21T19:46:50.818Z,52.91
2018-05-21T19:49:19.080Z,53.22
2018-05-21T19:51:47.321Z,52.03
2018-05-21T19:54:15.571Z,52.27
2018-05-21T19:56:43.823Z,51.30
2018-05-21T19:59:12.858Z,51.16
2018-05-21T20:01:41.103Z,51.08
2018-05-21T20:04:09.333Z,50.89
2018-05-21T20:06:37.639Z,50.83
2018-05-21T20:09:05.904Z,50.80
2018-05-21T20:11:34.158Z,50.75
2018-05-21T20:14:02.417Z,50.81
2018-05-21T20:16:31.366Z,51.34
2018-05-21T20:19:00.379Z,51.01
2018-05-21T20:21:29.400Z,51.38
2018-05-21T20:23:57.647Z,51.51
2018-05-21T20:26:25.898Z,51.77
2018-05-21T20:28:54.139Z,52.37
2018-05-21T20:31:23.575Z,53.19
2018-05-21T20:33:51.785Z,53.90
2018-05-21T20:36:20.011Z,54.01
2018-05-21T20:38:49.017Z,54.28
2018-05-21T20:41:18.043Z,55.06
2018-05-21T20:43:46.321Z,55.18
2018-05-21T20:46:15.344Z,55.53
2018-05-21T20:48:44.372Z,55.54
2018-05-21T20:51:12.615Z,55.20
2018-05-21T20:53:41.608Z,55.13
2018-05-21T20:56:10.625Z,56.22
2018-05-21T20:58:38.867Z,56.15
2018-05-21T21:01:07.123Z,57.09
2018-05-21T21:03:36.107Z,57.21
2018-05-21T21:06:05.190Z,57.85
2018-05-21T21:08:33.511Z,59.23
2018-05-21T21:11:01.779Z,58.22
2018-05-21T21:13:30.024Z,58.29
2018-05-21T21:15:58.264Z,58.13
2018-05-21T21:18:26.472Z,59.25
2018-05-21T21:20:54.757Z,59.20
2018-05-21T21:23:23.042Z,58.54
2018-05-21T21:25:51.303Z,59.29
2018-05-21T21:28:19.517Z,59.49
2018-05-21T21:30:48.561Z,60.03
2018-05-21T21:33:17.578Z,59.62
2018-05-21T21:35:45.821Z,60.12
2018-05-21T21:38:14.080Z,60.27
2018-05-21T21:40:42.309Z,60.28
2018-05-21T21:43:10.566Z,59.85
2018-05-21T21:45:38.766Z,60.14
2018-05-21T21:48:07.830Z,60.99
2018-05-21T21:50:36.824Z,61.75
2018-05-21T21:53:05.856Z,61.59
2018-05-21T21:55:34.090Z,61.52
2018-05-21T21:58:02.356Z,61.69
2018-05-21T22:00:30.595Z,62.26
2018-05-21T22:02:59.620Z,62.71
2018-05-21T22:05:27.860Z,61.64
2018-05-21T22:07:56.119Z,62.07
2018-05-21T22:10:24.365Z,62.49
2018-05-21T22:12:53.379Z,62.43
2018-05-21T22:15:21.615Z,61.49
2018-05-21T22:17:49.882Z,61.74
2018-05-21T22:20:18.127Z,61.28
2018-05-21T22:22:47.138Z,61.68
2018-05-21T22:25:16.142Z,62.92
2018-05-21T22:27:45.152Z,63.81
2018-05-21T22:30:14.120Z,64.81
2018-05-21T22:32:43.173Z,65.22
2018-05-21T22:35:12.139Z,66.11
2018-05-21T22:37:41.211Z,66.40
2018-05-21T22:40:09.443Z,67.18
2018-05-21T22:42:37.695Z,67.91
2018-05-21T22:45:05.921Z,68.54
2018-05-21T22:47:34.479Z,68.53
2018-05-21T22:50:02.725Z,68.23
2018-05-21T22:52:31.847Z,67.88
2018-05-21T22:55:00.958Z,68.22
2018-05-21T22:57:29.245Z,67.15
2018-05-21T22:59:58.262Z,67.16
2018-05-21T23:02:27.346Z,67.49
2018-05-21T23:04:56.359Z,67.39
2018-05-21T23:07:25.373Z,67.66
2018-05-21T23:09:54.404Z,68.09
2018-05-21T23:12:22.763Z,68.65
2018-05-21T23:14:51.878Z,68.95
2018-05-21T23:17:20.876Z,68.90
2018-05-21T23:19:49.887Z,69.62
2018-05-21T23:22:18.899Z,69.85
2018-05-21T23:24:47.931Z,70.31
2018-05-21T23:27:16.168Z,70.97
2018-05-21T23:29:44.415Z,71.45
2018-05-21T23:32:12.622Z,71.96
2018-05-21T23:34:41.671Z,72.36
2018-05-21T23:37:10.675Z,73.25
2018-05-21T23:39:39.688Z,73.42
2018-05-21T23:42:08.799Z,74.25
2018-05-21T23:44:37.828Z,74.61
2018-05-21T23:47:06.067Z,75.22
2018-05-21T23:49:34.325Z,75.47
2018-05-21T23:52:03.408Z,76.54
2018-05-21T23:54:31.668Z,77.25
2018-05-21T23:57:00.887Z,77.93
2018-05-21T23:59:29.898Z,78.07
